createdAt,value
2024-03-30T00:02:07.428Z,46.1
2024-03-30T00:07:25.571Z,45.1
2024-03-30T00:12:43.670Z,45.1
2024-03-30T00:18:01.824Z,45.8
2024-03-30T00:23:20.159Z,45.2
2024-03-30T00:28:38.462Z,46.2
2024-03-30T00:33:56.700Z,45.2
2024-03-30T00:39:14.850Z,46.4
2024-03-30T00:50:01.023Z,46.2
2024-03-30T00:55:19.356Z,45.8
2024-03-30T01:00:37.678Z,45.8
2024-03-30T01:05:55.839Z,45.4
2024-03-30T01:11:13.990Z,45.2
2024-03-30T01:16:32.087Z,45.5
2024-03-30T01:21:54.178Z,45.2
2024-03-30T01:27:12.520Z,45.7
2024-03-30T01:32:30.621Z,45.3
2024-03-30T01:37:48.744Z,45.6
2024-03-30T01:43:07.283Z,45.4
2024-03-30T01:48:25.238Z,45.6
2024-03-30T01:53:45.154Z,45.2
2024-03-30T01:59:03.323Z,46.2
2024-03-30T02:04:21.408Z,44.7
2024-03-30T02:09:39.738Z,45.3
2024-03-30T02:14:58.079Z,46.3
2024-03-30T02:20:16.387Z,46.4
2024-03-30T02:25:34.699Z,45.5
2024-03-30T02:30:53.070Z,45.6
2024-03-30T02:36:11.366Z,45.8
2024-03-30T02:41:29.698Z,45.1
2024-03-30T02:46:48.220Z,45
2024-03-30T02:52:06.330Z,46.2
2024-03-30T02:57:24.268Z,46.2
2024-03-30T03:02:42.809Z,45.2
2024-03-30T03:08:01.313Z,46.1
2024-03-30T03:13:19.435Z,46.2
2024-03-30T03:18:38.023Z,46.3
2024-03-30T03:23:56.185Z,46.3
2024-03-30T03:29:14.475Z,45.8
2024-03-30T03:34:33.286Z,45.3
2024-03-30T03:39:51.588Z,45.8
2024-03-30T03:45:09.521Z,46.1
2024-03-30T03:50:28.062Z,46.4
2024-03-30T03:55:46.561Z,46
2024-03-30T04:01:05.084Z,45.9
2024-03-30T04:06:23.425Z,46.4
2024-03-30T04:11:41.542Z,46.7
2024-03-30T04:16:59.672Z,46.5
2024-03-30T04:22:18.212Z,46.7
2024-03-30T04:27:36.131Z,46.8
2024-03-30T04:32:54.677Z,46.6
2024-03-30T04:38:13.013Z,46.7
2024-03-30T04:43:31.321Z,46.5
2024-03-30T04:48:49.448Z,47.3
2024-03-30T04:54:07.827Z,46.7
2024-03-30T04:59:25.953Z,47.1
2024-03-30T05:04:44.090Z,46.4
2024-03-30T05:10:02.217Z,46.3
2024-03-30T05:15:20.542Z,46
2024-03-30T05:20:38.801Z,46.9
2024-03-30T05:25:57.148Z,46.3
2024-03-30T05:31:15.653Z,47.2
2024-03-30T05:36:34.297Z,46.8
2024-03-30T05:41:52.444Z,46.4
2024-03-30T05:47:16.347Z,47.6
2024-03-30T05:52:34.477Z,47.3
2024-03-30T05:57:52.839Z,47.2
2024-03-30T06:03:10.733Z,47.3
2024-03-30T06:08:30.043Z,47.3
2024-03-30T06:13:48.605Z,47.3
2024-03-30T06:19:07.295Z,46.8
2024-03-30T06:24:25.432Z,47.6
2024-03-30T06:29:43.373Z,47.7
2024-03-30T06:35:01.715Z,46.9
2024-03-30T06:40:19.997Z,46.6
2024-03-30T06:45:38.137Z,46.6
2024-03-30T06:50:56.518Z,45.9
2024-03-30T06:55:59.203Z,45.4
2024-03-30T07:01:17.358Z,45.3
2024-03-30T07:06:35.281Z,46.2
2024-03-30T07:11:53.383Z,46
2024-03-30T07:17:15.561Z,46.4
2024-03-30T07:22:34.086Z,45.4
2024-03-30T07:27:52.119Z,45.4
2024-03-30T07:33:12.913Z,45.4
2024-03-30T07:38:33.696Z,45.9
2024-03-30T07:43:55.238Z,45.7
2024-03-30T07:49:13.364Z,44.8
2024-03-30T07:54:31.327Z,44.4
2024-03-30T07:59:49.743Z,43
2024-03-30T08:05:08.395Z,43.5
2024-03-30T08:10:26.550Z,42.1
2024-03-30T08:15:44.985Z,42.4
2024-03-30T08:21:03.203Z,41.7
2024-03-30T08:26:21.434Z,43.2
2024-03-30T08:31:39.835Z,43
2024-03-30T08:36:58.150Z,42.3
2024-03-30T08:42:24.743Z,42.9
2024-03-30T08:47:45.021Z,42.1
2024-03-30T08:53:03.442Z,42.5
2024-03-30T08:58:21.919Z,42.1
2024-03-30T09:03:40.109Z,43
2024-03-30T09:09:00.747Z,42.7
2024-03-30T09:14:19.098Z,41.3
2024-03-30T09:19:37.406Z,41.2
2024-03-30T09:24:58.440Z,40.7
2024-03-30T09:30:16.562Z,40.5
2024-03-30T09:35:34.909Z,39.2
2024-03-30T09:40:53.550Z,40.5
2024-03-30T09:46:11.842Z,40.4
2024-03-30T09:51:30.411Z,38.7
2024-03-30T09:56:48.733Z,39.9
2024-03-30T10:02:06.902Z,40.6
2024-03-30T10:07:25.031Z,39.7
2024-03-30T10:12:43.631Z,40.4
2024-03-30T10:18:02.144Z,40.8
2024-03-30T10:23:20.278Z,39.2
2024-03-30T10:28:38.404Z,40.8
2024-03-30T10:33:56.707Z,39.8
2024-03-30T10:39:15.030Z,39.4
2024-03-30T10:44:33.145Z,40.2
2024-03-30T10:49:51.485Z,41.1
2024-03-30T10:55:09.591Z,41.4
2024-03-30T11:00:28.266Z,41.1
2024-03-30T11:05:46.547Z,42.2
2024-03-30T11:11:05.041Z,43
2024-03-30T11:16:23.507Z,43.2
2024-03-30T11:21:41.686Z,43.2
2024-03-30T11:26:59.810Z,42.9
2024-03-30T11:32:17.770Z,43.7
2024-03-30T11:37:35.879Z,43.7
2024-03-30T11:42:53.874Z,43.2
2024-03-30T11:48:12.037Z,44.1
2024-03-30T11:53:30.355Z,44
2024-03-30T11:58:48.475Z,44.6
2024-03-30T12:04:06.815Z,44.3
2024-03-30T12:09:25.354Z,43.5
2024-03-30T12:14:43.866Z,44.1
2024-03-30T12:20:02.250Z,44.1
2024-03-30T12:25:20.762Z,43.5
2024-03-30T12:30:39.286Z,44.1
2024-03-30T12:35:57.422Z,43.8
2024-03-30T12:41:15.523Z,43.2
2024-03-30T12:46:33.862Z,43.3
2024-03-30T12:51:52.181Z,43.2
2024-03-30T12:57:10.103Z,44.1
2024-03-30T13:02:32.232Z,43.5
2024-03-30T13:07:50.773Z,44.4
2024-03-30T13:13:10.795Z,44.1
2024-03-30T13:18:29.386Z,44
2024-03-30T13:23:47.730Z,44.3
2024-03-30T13:29:05.901Z,44.3
2024-03-30T13:34:24.307Z,44.5
2024-03-30T13:39:42.456Z,44.7
2024-03-30T13:45:00.619Z,44.5
2024-03-30T13:50:19.109Z,44.5
2024-03-30T13:55:37.572Z,44.4
2024-03-30T14:00:55.688Z,44.7
2024-03-30T14:06:13.860Z,46
2024-03-30T14:11:32.153Z,45.8
2024-03-30T14:16:50.466Z,46.3
2024-03-30T14:22:08.991Z,46.4
2024-03-30T14:27:27.123Z,46.7
2024-03-30T14:32:45.629Z,45.4
2024-03-30T14:38:03.976Z,46
2024-03-30T14:43:22.523Z,45.3
2024-03-30T14:48:41.003Z,45.9
2024-03-30T14:53:58.931Z,45
2024-03-30T14:59:17.275Z,45.5
2024-03-30T15:04:35.568Z,45.5
2024-03-30T15:09:54.079Z,44.8
2024-03-30T15:15:12.076Z,45.8
2024-03-30T15:20:30.374Z,45.9
2024-03-30T15:25:48.962Z,45.7
2024-03-30T15:31:07.092Z,45.7
2024-03-30T15:36:25.197Z,45.8
2024-03-30T15:41:43.722Z,45.3
2024-03-30T15:47:02.253Z,45.1
2024-03-30T15:52:20.566Z,45.3
2024-03-30T15:57:38.672Z,46.1
2024-03-30T16:02:57.001Z,45.9
2024-03-30T16:08:15.335Z,45.3
2024-03-30T16:13:33.453Z,45.7
2024-03-30T16:18:51.795Z,45.9
2024-03-30T16:24:09.900Z,45.3
2024-03-30T16:29:28.312Z,45.8
2024-03-30T16:34:46.607Z,45.2
2024-03-30T16:40:04.702Z,46
2024-03-30T16:45:23.141Z,45.9
2024-03-30T16:50:41.278Z,45.1
2024-03-30T16:55:59.669Z,45.1
2024-03-30T17:01:17.786Z,44.7
2024-03-30T17:06:37.175Z,45.4
2024-03-30T17:11:55.462Z,44.7
2024-03-30T17:17:13.804Z,45
2024-03-30T17:22:32.152Z,45.4
2024-03-30T17:27:55.829Z,45.9
2024-03-30T17:33:15.249Z,44.9
2024-03-30T17:38:33.592Z,45
2024-03-30T17:43:51.956Z,46.3
2024-03-30T17:49:10.302Z,45.8
2024-03-30T17:54:28.834Z,45.7
2024-03-30T17:59:47.348Z,44.8
2024-03-30T18:05:05.473Z,44.7
2024-03-30T18:10:25.252Z,45.5
2024-03-30T18:15:43.167Z,45
2024-03-30T18:21:01.536Z,45.4
2024-03-30T18:26:19.871Z,44.7
2024-03-30T18:31:38.168Z,45.6
2024-03-30T18:36:56.438Z,45.4
2024-03-30T18:42:14.597Z,45.7
2024-03-30T18:47:33.764Z,44.9
2024-03-30T18:52:52.077Z,44.4
2024-03-30T18:58:10.405Z,45.1
2024-03-30T19:03:28.715Z,44.8
2024-03-30T19:08:46.837Z,44.9
2024-03-30T19:14:05.419Z,45
2024-03-30T19:19:23.542Z,44.9
2024-03-30T19:24:41.905Z,45.3
2024-03-30T19:30:00.050Z,44.9
2024-03-30T19:35:18.163Z,45.4
2024-03-30T19:40:36.501Z,45.6
2024-03-30T19:45:54.589Z,45.4
2024-03-30T19:51:13.307Z,44.8
2024-03-30T19:56:31.743Z,45.6
2024-03-30T20:01:49.840Z,45.1
2024-03-30T20:07:08.147Z,45.6
2024-03-30T20:12:29.009Z,45
2024-03-30T20:17:46.962Z,44.9
2024-03-30T20:23:05.470Z,44.9
2024-03-30T20:28:23.638Z,45.8
2024-03-30T20:33:41.772Z,45.8
2024-03-30T20:38:59.885Z,45.2
2024-03-30T20:44:18.296Z,45.1
2024-03-30T20:49:36.647Z,46
2024-03-30T20:54:54.577Z,46
2024-03-30T21:00:13.016Z,45.1
2024-03-30T21:05:31.520Z,45.9
2024-03-30T21:10:49.847Z,45.2
2024-03-30T21:15:53.022Z,45.9
2024-03-30T21:21:11.182Z,45.9
2024-03-30T21:26:29.753Z,45.3
2024-03-30T21:31:48.405Z,45
2024-03-30T21:37:06.738Z,45.6
2024-03-30T21:42:25.167Z,45.8
2024-03-30T21:47:43.287Z,44.9
2024-03-30T21:53:01.813Z,46.1
2024-03-30T21:58:19.912Z,46.7
2024-03-30T22:03:37.842Z,46.4
2024-03-30T22:08:55.994Z,46.9
2024-03-30T22:14:14.093Z,47.7
2024-03-30T22:19:32.410Z,47
2024-03-30T22:24:50.934Z,47.2
2024-03-30T22:30:08.854Z,47
2024-03-30T22:35:26.989Z,47.2
2024-03-30T22:40:45.524Z,47.5
2024-03-30T22:46:03.643Z,47
2024-03-30T22:51:21.570Z,46.7
2024-03-30T22:56:39.720Z,47
2024-03-30T23:01:58.029Z,47.1
2024-03-30T23:07:16.153Z,47.6
2024-03-30T23:12:34.635Z,47.5
2024-03-30T23:17:52.835Z,47.6
2024-03-30T23:23:10.958Z,47.6
2024-03-30T23:28:29.091Z,46.8
2024-03-30T23:33:47.699Z,46.9
2024-03-30T23:39:05.834Z,47.3
2024-03-30T23:44:23.788Z,47.6
2024-03-30T23:49:26.268Z,47.5
2024-03-30T23:54:44.779Z,47
